createdAt,value
2022-12-26T00:02:02.797Z,6.40
2022-12-26T00:04:51.180Z,6.40
2022-12-26T00:07:23.474Z,6.30
2022-12-26T00:09:53.419Z,6.50
2022-12-26T00:12:23.381Z,6.40
2022-12-26T00:14:54.371Z,6.40
2022-12-26T00:17:26.933Z,6.50
2022-12-26T00:19:56.897Z,6.40
2022-12-26T00:22:26.891Z,6.40
2022-12-26T00:24:56.791Z,6.40
2022-12-26T00:27:26.744Z,6.40
2022-12-26T00:29:56.675Z,6.40
2022-12-26T00:32:29.212Z,6.40
2022-12-26T00:34:59.187Z,6.40
2022-12-26T00:37:29.181Z,6.40
2022-12-26T00:39:59.180Z,6.40
2022-12-26T00:42:29.345Z,6.40
2022-12-26T00:44:59.308Z,6.50
2022-12-26T00:47:31.842Z,6.50
2022-12-26T00:50:14.958Z,6.60
2022-12-26T00:52:45.821Z,6.60
2022-12-26T00:55:15.834Z,6.60
2022-12-26T00:57:45.762Z,6.50
2022-12-26T01:00:17.348Z,6.60
2022-12-26T01:02:50.130Z,6.70
2022-12-26T01:05:20.352Z,6.60
2022-12-26T01:08:22.056Z,7.80
2022-12-26T01:10:42.792Z,6.70
2022-12-26T01:13:12.775Z,6.70
2022-12-26T01:15:42.771Z,6.60
2022-12-26T01:18:15.370Z,6.70
2022-12-26T01:20:45.315Z,6.60
2022-12-26T01:23:15.400Z,6.70
2022-12-26T01:26:15.234Z,6.70
2022-12-26T01:28:35.434Z,6.70
2022-12-26T01:31:05.996Z,6.70
2022-12-26T01:33:38.550Z,6.70
2022-12-26T01:36:09.199Z,6.70
2022-12-26T01:38:39.408Z,6.70
2022-12-26T01:41:20.535Z,6.70
2022-12-26T01:44:06.937Z,6.60
2022-12-26T01:46:41.430Z,6.60
2022-12-26T01:49:18.672Z,6.40
2022-12-26T01:51:54.803Z,6.50
2022-12-26T01:54:37.424Z,6.50
2022-12-26T01:57:15.967Z,6.40
2022-12-26T01:59:48.473Z,6.40
2022-12-26T02:02:19.610Z,6.40
2022-12-26T02:05:07.368Z,6.50
2022-12-26T02:07:38.810Z,6.50
2022-12-26T02:10:13.817Z,6.50
2022-12-26T02:12:44.191Z,6.50
2022-12-26T02:15:16.999Z,8.80
2022-12-26T02:17:50.046Z,6.50
2022-12-26T02:20:25.405Z,6.50
2022-12-26T02:23:23.522Z,6.60
2022-12-26T02:26:30.951Z,6.60
2022-12-26T02:29:28.771Z,6.60
2022-12-26T02:32:10.139Z,6.60
2022-12-26T02:34:45.021Z,7.00
2022-12-26T02:37:26.482Z,6.60
2022-12-26T02:40:10.465Z,6.50
2022-12-26T02:42:51.191Z,6.60
2022-12-26T02:45:42.338Z,6.60
2022-12-26T02:48:19.786Z,6.60
2022-12-26T02:51:11.634Z,6.60
2022-12-26T02:54:01.831Z,6.70
2022-12-26T02:56:49.425Z,6.60
2022-12-26T02:59:55.697Z,6.60
2022-12-26T03:02:44.028Z,6.60
2022-12-26T03:05:36.998Z,6.40
2022-12-26T03:08:31.002Z,6.60
2022-12-26T03:11:14.083Z,6.60
2022-12-26T03:13:46.227Z,6.60
2022-12-26T03:16:30.294Z,6.60
2022-12-26T03:19:05.761Z,6.70
2022-12-26T03:21:43.182Z,6.60
2022-12-26T03:24:15.301Z,6.60
2022-12-26T03:26:49.058Z,6.60
2022-12-26T03:29:33.145Z,6.80
2022-12-26T03:32:05.157Z,6.50
2022-12-26T03:34:35.567Z,6.50
2022-12-26T03:37:48.450Z,6.60
2022-12-26T03:40:59.193Z,6.50
2022-12-26T03:43:57.412Z,6.50
2022-12-26T03:46:47.622Z,6.50
2022-12-26T03:49:35.460Z,6.40
2022-12-26T03:52:29.580Z,6.50
2022-12-26T03:55:18.382Z,6.60
2022-12-26T03:58:06.508Z,6.60
2022-12-26T04:00:50.757Z,6.60
2022-12-26T04:03:37.128Z,6.60
2022-12-26T04:06:24.269Z,6.60
2022-12-26T04:09:14.673Z,6.70
2022-12-26T04:12:00.776Z,6.80
2022-12-26T04:14:53.955Z,6.80
2022-12-26T04:17:50.256Z,6.80
2022-12-26T04:20:27.596Z,6.90
2022-12-26T04:23:14.282Z,6.80
2022-12-26T04:26:02.560Z,6.90
2022-12-26T04:28:45.095Z,6.90
2022-12-26T04:31:37.057Z,6.90
2022-12-26T04:34:24.267Z,6.90
2022-12-26T04:37:11.390Z,6.90
2022-12-26T04:39:55.572Z,6.90
2022-12-26T04:42:42.109Z,6.90
2022-12-26T04:45:14.169Z,6.90
2022-12-26T04:48:04.771Z,7.00
2022-12-26T04:50:32.227Z,7.00
2022-12-26T04:53:02.269Z,7.00
2022-12-26T04:55:35.896Z,7.00
2022-12-26T04:58:09.123Z,7.00
2022-12-26T05:00:39.150Z,7.00
2022-12-26T05:03:21.619Z,6.90
2022-12-26T05:06:07.300Z,7.00
2022-12-26T05:08:52.999Z,6.90
2022-12-26T05:11:23.016Z,6.90
2022-12-26T05:13:56.844Z,6.90
2022-12-26T05:16:40.852Z,6.90
2022-12-26T05:19:26.254Z,6.90
2022-12-26T05:22:08.895Z,7.00
2022-12-26T05:24:54.671Z,7.00
2022-12-26T05:27:37.588Z,7.10
2022-12-26T05:30:12.245Z,7.10
2022-12-26T05:32:54.661Z,7.20
2022-12-26T05:35:24.723Z,7.20
2022-12-26T05:37:54.762Z,7.30
2022-12-26T05:40:24.780Z,7.40
2022-12-26T05:42:55.856Z,7.40
2022-12-26T05:45:28.505Z,7.40
2022-12-26T05:48:01.665Z,7.50
2022-12-26T05:50:32.127Z,7.50
2022-12-26T05:53:04.103Z,11.10
2022-12-26T05:55:36.318Z,7.50
2022-12-26T05:58:06.456Z,7.70
2022-12-26T06:00:39.093Z,7.70
2022-12-26T06:03:09.162Z,7.70
2022-12-26T06:05:39.126Z,7.70
2022-12-26T06:08:09.253Z,7.70
2022-12-26T06:10:39.260Z,7.70
2022-12-26T06:13:09.205Z,8.10
2022-12-26T06:15:43.970Z,7.80
2022-12-26T06:18:14.085Z,7.80
2022-12-26T06:20:44.234Z,7.80
2022-12-26T06:23:14.332Z,7.90
2022-12-26T06:25:44.297Z,7.90
2022-12-26T06:28:14.249Z,7.90
2022-12-26T06:30:46.871Z,8.00
2022-12-26T06:35:47.457Z,8.00
2022-12-26T06:38:17.475Z,8.10
2022-12-26T06:40:47.442Z,8.10
2022-12-26T06:43:17.399Z,8.10
2022-12-26T06:45:57.648Z,8.10
2022-12-26T06:48:27.996Z,8.10
2022-12-26T06:50:58.266Z,8.10
2022-12-26T06:53:28.308Z,8.00
2022-12-26T06:55:58.285Z,8.00
2022-12-26T06:58:28.291Z,8.00
2022-12-26T07:01:07.150Z,8.00
2022-12-26T07:03:37.290Z,8.00
2022-12-26T07:06:09.252Z,8.00
2022-12-26T07:08:39.234Z,8.00
2022-12-26T07:11:16.189Z,8.00
2022-12-26T07:13:46.563Z,8.00
2022-12-26T07:16:19.197Z,8.00
2022-12-26T07:18:49.195Z,8.00
2022-12-26T07:21:19.578Z,8.00
2022-12-26T07:23:49.687Z,8.00
2022-12-26T07:26:19.916Z,8.00
2022-12-26T07:28:50.392Z,8.00
2022-12-26T07:31:23.744Z,7.90
2022-12-26T07:33:55.483Z,8.40
2022-12-26T07:36:27.151Z,7.90
2022-12-26T07:38:57.842Z,7.80
2022-12-26T07:41:40.479Z,7.80
2022-12-26T07:44:12.218Z,7.80
2022-12-26T07:46:46.683Z,7.70
2022-12-26T07:49:17.089Z,7.80
2022-12-26T07:51:47.155Z,7.80
2022-12-26T07:54:17.789Z,7.80
2022-12-26T07:56:48.255Z,7.80
2022-12-26T07:59:20.573Z,7.80
2022-12-26T08:01:53.253Z,7.80
2022-12-26T08:04:23.377Z,7.80
2022-12-26T08:06:55.387Z,7.80
2022-12-26T08:09:26.252Z,7.70
2022-12-26T08:11:56.226Z,7.80
2022-12-26T08:14:26.247Z,7.80
2022-12-26T08:16:59.895Z,7.90
2022-12-26T08:19:30.035Z,7.90
2022-12-26T08:22:00.100Z,8.00
2022-12-26T08:24:30.796Z,8.00
2022-12-26T08:27:00.787Z,8.00
2022-12-26T08:29:31.664Z,8.10
2022-12-26T08:32:05.353Z,8.10
2022-12-26T08:34:36.460Z,8.10
2022-12-26T08:37:06.505Z,8.10
2022-12-26T08:39:37.974Z,8.20
2022-12-26T08:42:08.041Z,8.20
2022-12-26T08:44:38.053Z,8.20
2022-12-26T08:47:10.717Z,8.20
2022-12-26T08:49:44.066Z,8.20
2022-12-26T08:52:14.173Z,8.30
2022-12-26T08:54:44.176Z,8.30
2022-12-26T08:57:15.718Z,8.30
2022-12-26T08:59:46.852Z,8.20
2022-12-26T09:02:19.705Z,8.20
2022-12-26T09:09:51.491Z,8.20
2022-12-26T09:17:28.114Z,8.40
2022-12-26T09:22:42.282Z,8.60
2022-12-26T09:32:52.976Z,8.60
2022-12-26T09:40:30.285Z,8.70
2022-12-26T09:43:12.565Z,8.70
2022-12-26T09:45:55.098Z,8.70
2022-12-26T09:48:34.509Z,8.70
2022-12-26T09:53:38.660Z,8.80
2022-12-26T09:56:23.696Z,8.70
2022-12-26T09:59:06.790Z,8.70
2022-12-26T10:01:39.091Z,8.70
2022-12-26T10:04:29.837Z,8.70
2022-12-26T10:07:12.166Z,8.80
2022-12-26T10:09:58.201Z,8.80
2022-12-26T10:12:41.405Z,8.80
2022-12-26T10:15:25.385Z,8.90
2022-12-26T10:18:06.515Z,8.90
2022-12-26T10:20:46.581Z,8.80
2022-12-26T10:23:33.031Z,8.80
2022-12-26T10:26:10.589Z,8.80
2022-12-26T10:28:46.955Z,8.90
2022-12-26T10:31:22.620Z,8.70
2022-12-26T10:33:59.240Z,8.80
2022-12-26T10:36:37.441Z,8.50
2022-12-26T10:39:17.807Z,8.80
2022-12-26T10:41:50.997Z,8.60
2022-12-26T10:44:27.323Z,8.80
2022-12-26T10:47:12.201Z,8.50
2022-12-26T10:52:15.131Z,8.30
2022-12-26T10:54:50.786Z,8.50
2022-12-26T10:57:41.654Z,8.30
2022-12-26T11:00:21.068Z,8.40
2022-12-26T11:03:06.626Z,8.70
2022-12-26T11:06:06.429Z,8.60
2022-12-26T11:08:43.342Z,8.50
2022-12-26T11:11:23.932Z,8.30
2022-12-26T11:14:03.333Z,8.20
2022-12-26T11:16:37.909Z,7.90
2022-12-26T11:19:08.709Z,8.20
2022-12-26T11:21:38.963Z,8.00
2022-12-26T11:24:20.338Z,8.50
2022-12-26T11:26:53.029Z,8.20
2022-12-26T11:29:24.912Z,8.20
2022-12-26T11:31:59.770Z,8.30
2022-12-26T11:34:35.004Z,8.40
2022-12-26T11:37:07.383Z,8.10
2022-12-26T11:39:39.787Z,8.30
2022-12-26T11:42:21.497Z,8.10
2022-12-26T11:44:55.314Z,7.90
2022-12-26T11:47:28.958Z,8.10
2022-12-26T11:50:07.538Z,7.80
2022-12-26T11:52:44.048Z,8.10
2022-12-26T11:55:34.336Z,7.20
2022-12-26T11:58:20.266Z,8.00
2022-12-26T12:01:15.944Z,7.60
2022-12-26T12:03:49.919Z,8.20
2022-12-26T12:06:47.347Z,7.80
2022-12-26T12:09:24.648Z,7.80
2022-12-26T12:12:03.616Z,8.20
2022-12-26T12:14:55.246Z,7.90
2022-12-26T12:17:32.419Z,8.20
2022-12-26T12:20:35.515Z,8.40
2022-12-26T12:23:33.314Z,8.00
2022-12-26T12:26:11.950Z,8.20
2022-12-26T12:29:10.300Z,8.00
2022-12-26T12:32:01.509Z,8.10
2022-12-26T12:34:49.547Z,8.00
2022-12-26T12:37:30.003Z,8.30
2022-12-26T12:40:07.696Z,8.00
2022-12-26T12:42:47.060Z,4.90
2022-12-26T12:45:30.259Z,8.20
2022-12-26T12:48:25.276Z,7.80
2022-12-26T12:51:03.548Z,7.20
2022-12-26T12:53:51.749Z,8.10
2022-12-26T12:56:30.765Z,8.10
2022-12-26T12:59:09.268Z,8.10
2022-12-26T13:01:43.759Z,8.10
2022-12-26T13:04:21.343Z,8.10
2022-12-26T13:06:55.167Z,8.10
2022-12-26T13:09:29.218Z,8.10
2022-12-26T13:12:03.405Z,8.00
2022-12-26T13:14:39.057Z,8.20
2022-12-26T13:17:12.777Z,8.20
2022-12-26T13:19:58.494Z,8.20
2022-12-26T13:22:56.553Z,7.80
2022-12-26T13:25:26.995Z,8.00
2022-12-26T13:28:09.611Z,7.80
2022-12-26T13:30:41.442Z,8.20
2022-12-26T13:33:17.290Z,8.10
2022-12-26T13:35:56.916Z,8.20
2022-12-26T13:38:52.246Z,8.30
2022-12-26T13:41:36.670Z,8.30
2022-12-26T13:44:09.819Z,8.30
2022-12-26T13:46:57.049Z,8.20
2022-12-26T13:49:36.298Z,8.00
2022-12-26T13:52:34.630Z,8.30
2022-12-26T13:55:39.095Z,8.20
2022-12-26T13:58:26.968Z,8.10
2022-12-26T14:01:01.969Z,8.00
2022-12-26T14:03:52.717Z,8.00
2022-12-26T14:06:48.622Z,7.90
2022-12-26T14:09:54.310Z,8.00
2022-12-26T14:13:00.019Z,8.00
2022-12-26T14:15:50.675Z,8.00
2022-12-26T14:18:34.228Z,8.00
2022-12-26T14:21:24.876Z,8.20
2022-12-26T14:24:02.962Z,7.70
2022-12-26T14:26:46.373Z,7.80
2022-12-26T14:29:26.707Z,8.10
2022-12-26T14:32:13.834Z,8.00
2022-12-26T14:34:56.814Z,8.00
2022-12-26T14:37:34.392Z,8.00
2022-12-26T14:40:21.382Z,8.00
2022-12-26T14:43:29.040Z,8.20
2022-12-26T14:46:00.152Z,7.60
2022-12-26T14:48:53.885Z,7.90
2022-12-26T14:51:42.826Z,7.80
2022-12-26T14:54:38.846Z,7.00
2022-12-26T14:57:39.119Z,7.90
2022-12-26T15:00:32.734Z,7.90
2022-12-26T15:03:33.547Z,7.90
2022-12-26T15:06:38.980Z,7.90
2022-12-26T15:09:13.945Z,7.90
2022-12-26T15:11:58.573Z,7.90
2022-12-26T15:15:03.021Z,7.60
2022-12-26T15:17:44.109Z,7.80
2022-12-26T15:20:47.156Z,8.40
2022-12-26T15:23:48.494Z,7.80
2022-12-26T15:26:58.488Z,7.80
2022-12-26T15:30:06.414Z,8.00
2022-12-26T15:32:46.095Z,7.80
2022-12-26T15:35:24.463Z,7.70
2022-12-26T15:38:21.740Z,7.30
2022-12-26T15:40:58.652Z,7.70
2022-12-26T15:43:42.318Z,7.70
2022-12-26T15:46:21.513Z,7.80
2022-12-26T15:49:08.356Z,7.80
2022-12-26T15:51:56.334Z,7.50
2022-12-26T15:54:51.343Z,7.60
2022-12-26T15:57:29.058Z,7.80
2022-12-26T16:00:13.973Z,7.70
2022-12-26T16:02:49.669Z,7.90
2022-12-26T16:05:45.076Z,8.10
2022-12-26T16:08:41.533Z,8.00
2022-12-26T16:11:18.140Z,7.90
2022-12-26T16:14:13.623Z,7.80
2022-12-26T16:16:44.039Z,7.80
2022-12-26T16:19:23.402Z,7.80
2022-12-26T16:22:11.545Z,7.80
2022-12-26T16:24:43.740Z,7.80
2022-12-26T16:27:20.692Z,7.70
2022-12-26T16:29:52.992Z,7.70
2022-12-26T16:32:28.283Z,7.60
2022-12-26T16:34:59.484Z,7.60
2022-12-26T16:37:33.417Z,7.60
2022-12-26T16:40:22.437Z,7.60
2022-12-26T16:43:02.050Z,7.60
2022-12-26T16:45:35.297Z,7.60
2022-12-26T16:48:09.047Z,7.60
2022-12-26T16:50:50.182Z,7.70
2022-12-26T16:53:25.046Z,7.70
2022-12-26T16:56:00.973Z,7.60
2022-12-26T16:58:37.587Z,7.60
2022-12-26T17:01:11.680Z,7.60
2022-12-26T17:03:50.393Z,7.60
2022-12-26T17:06:26.924Z,7.70
2022-12-26T17:09:01.048Z,7.50
2022-12-26T17:11:33.477Z,7.60
2022-12-26T17:14:05.208Z,7.60
2022-12-26T17:16:36.266Z,7.60
2022-12-26T17:19:19.713Z,7.60
2022-12-26T17:22:22.081Z,7.60
2022-12-26T17:25:15.159Z,7.60
2022-12-26T17:27:45.308Z,7.60
2022-12-26T17:30:30.280Z,7.60
2022-12-26T17:33:05.663Z,7.60
2022-12-26T17:36:21.596Z,7.60
2022-12-26T17:38:29.834Z,7.60
2022-12-26T17:41:06.929Z,7.60
2022-12-26T17:43:38.984Z,7.60
2022-12-26T17:46:13.542Z,7.60
2022-12-26T17:48:44.046Z,7.70
2022-12-26T17:51:18.958Z,7.70
2022-12-26T17:53:51.977Z,7.70
2022-12-26T17:56:27.324Z,7.30
2022-12-26T17:58:57.639Z,7.60
2022-12-26T18:01:27.741Z,7.70
2022-12-26T18:03:57.870Z,7.70
2022-12-26T18:06:28.103Z,7.70
2022-12-26T18:08:58.324Z,7.70
2022-12-26T18:11:30.845Z,7.60
2022-12-26T18:14:01.205Z,7.70
2022-12-26T18:16:31.354Z,7.80
2022-12-26T18:19:01.420Z,7.70
2022-12-26T18:21:31.463Z,7.70
2022-12-26T18:24:01.443Z,7.70
2022-12-26T18:26:34.351Z,7.70
2022-12-26T18:29:04.829Z,7.70
2022-12-26T18:31:34.877Z,7.60
2022-12-26T18:34:04.855Z,7.70
2022-12-26T18:36:37.280Z,7.70
2022-12-26T18:39:08.239Z,7.70
2022-12-26T18:41:40.985Z,7.80
2022-12-26T18:44:11.137Z,7.70
2022-12-26T18:46:41.182Z,7.70
2022-12-26T18:49:12.310Z,7.80
2022-12-26T18:51:42.304Z,7.70
2022-12-26T18:54:12.327Z,7.80
2022-12-26T18:56:44.900Z,7.80
2022-12-26T18:59:15.325Z,7.80
2022-12-26T19:01:45.452Z,7.80
2022-12-26T19:04:17.176Z,7.70
2022-12-26T19:06:47.301Z,7.70
2022-12-26T19:09:17.863Z,7.60
2022-12-26T19:11:51.087Z,8.50
2022-12-26T19:14:24.117Z,6.40
2022-12-26T19:16:54.237Z,6.30
2022-12-26T19:19:26.704Z,6.20
2022-12-26T19:21:56.762Z,6.10
2022-12-26T19:24:27.062Z,6.10
2022-12-26T19:26:59.788Z,6.00
2022-12-26T19:29:29.793Z,6.00
2022-12-26T19:31:59.907Z,6.10
2022-12-26T19:34:30.036Z,6.00
2022-12-26T19:37:00.041Z,6.00
2022-12-26T19:39:30.038Z,6.00
2022-12-26T19:42:02.613Z,6.00
2022-12-26T19:44:32.687Z,6.00
2022-12-26T19:47:11.789Z,6.10
2022-12-26T19:49:43.467Z,6.00
2022-12-26T19:52:14.261Z,6.00
2022-12-26T19:54:44.231Z,5.90
2022-12-26T19:57:16.921Z,5.90
2022-12-26T19:59:47.028Z,5.90
2022-12-26T20:02:17.202Z,5.90
2022-12-26T20:04:47.435Z,5.90
2022-12-26T20:07:17.445Z,5.90
2022-12-26T20:09:47.695Z,5.90
2022-12-26T20:12:20.314Z,5.90
2022-12-26T20:14:50.331Z,5.90
2022-12-26T20:17:20.488Z,5.90
2022-12-26T20:19:52.234Z,5.90
2022-12-26T20:22:22.337Z,5.90
2022-12-26T20:24:52.382Z,5.80
2022-12-26T20:27:25.098Z,6.50
2022-12-26T20:29:55.063Z,5.70
2022-12-26T20:32:25.172Z,5.70
2022-12-26T20:34:55.387Z,5.60
2022-12-26T20:37:25.521Z,5.60
2022-12-26T20:39:59.267Z,5.60
2022-12-26T20:42:32.045Z,5.60
2022-12-26T20:45:02.158Z,5.60
2022-12-26T20:47:33.823Z,5.60
2022-12-26T20:50:03.930Z,5.60
2022-12-26T20:52:34.049Z,5.60
2022-12-26T20:55:04.538Z,5.60
2022-12-26T20:57:37.673Z,5.60
2022-12-26T21:00:09.937Z,5.50
2022-12-26T21:02:40.150Z,5.50
2022-12-26T21:05:10.799Z,5.50
2022-12-26T21:07:41.205Z,5.50
2022-12-26T21:10:12.978Z,5.50
2022-12-26T21:12:45.883Z,5.50
2022-12-26T21:15:16.284Z,5.50
2022-12-26T21:17:46.451Z,5.50
2022-12-26T21:20:17.641Z,5.50
2022-12-26T21:22:47.736Z,5.50
2022-12-26T21:25:17.826Z,5.50
2022-12-26T21:27:52.201Z,5.50
2022-12-26T21:30:25.063Z,5.50
2022-12-26T21:32:55.118Z,5.60
2022-12-26T21:35:25.047Z,5.60
2022-12-26T21:37:55.207Z,5.60
2022-12-26T21:40:27.733Z,5.60
2022-12-26T21:43:00.593Z,5.70
2022-12-26T21:45:30.851Z,6.10
2022-12-26T21:48:00.909Z,5.70
2022-12-26T21:50:30.950Z,5.70
2022-12-26T21:53:01.182Z,5.60
2022-12-26T21:55:36.291Z,5.70
2022-12-26T21:58:09.027Z,5.70
2022-12-26T22:00:39.104Z,5.70
2022-12-26T22:03:21.752Z,5.60
2022-12-26T22:05:51.849Z,5.60
2022-12-26T22:08:22.823Z,5.60
2022-12-26T22:11:05.178Z,5.60
2022-12-26T22:13:47.082Z,5.60
2022-12-26T22:16:17.279Z,5.80
2022-12-26T22:18:49.429Z,6.50
2022-12-26T22:21:21.144Z,5.50
2022-12-26T22:23:52.526Z,5.50
2022-12-26T22:26:24.829Z,5.00
2022-12-26T22:28:57.515Z,5.40
2022-12-26T22:31:30.076Z,5.40
2022-12-26T22:34:01.685Z,5.40
2022-12-26T22:36:32.507Z,5.50
2022-12-26T22:39:03.016Z,5.40
2022-12-26T22:41:33.031Z,5.30
2022-12-26T22:44:05.866Z,5.30
2022-12-26T22:46:36.903Z,5.20
2022-12-26T22:49:07.232Z,5.30
2022-12-26T22:51:37.371Z,5.30
2022-12-26T22:54:08.130Z,5.40
2022-12-26T22:56:38.197Z,5.40
2022-12-26T22:59:27.488Z,5.40
2022-12-26T23:02:02.743Z,5.40
2022-12-26T23:04:33.426Z,5.40
2022-12-26T23:07:04.089Z,5.40
2022-12-26T23:09:34.506Z,5.40
2022-12-26T23:12:17.585Z,5.30
2022-12-26T23:14:50.702Z,5.30
2022-12-26T23:17:41.137Z,5.20
2022-12-26T23:20:28.330Z,3.30
2022-12-26T23:22:59.274Z,5.10
2022-12-26T23:25:30.080Z,5.10
2022-12-26T23:28:12.683Z,5.00
2022-12-26T23:30:45.313Z,4.90
2022-12-26T23:33:15.327Z,4.60
2022-12-26T23:35:45.344Z,4.50
2022-12-26T23:38:15.321Z,4.40
2022-12-26T23:40:45.621Z,4.40
2022-12-26T23:43:15.947Z,4.20
2022-12-26T23:45:48.837Z,4.10
2022-12-26T23:48:19.028Z,4.00
2022-12-26T23:50:49.635Z,3.90
2022-12-26T23:53:19.850Z,3.80
2022-12-26T23:55:49.807Z,3.70
2022-12-26T23:58:19.768Z,3.60
